createdAt,value
2019-02-28T00:00:00.862Z,100681.72
2019-02-28T00:02:34.348Z,100675.59
2019-02-28T00:05:06.830Z,100663.36
2019-02-28T00:07:38.794Z,100667.66
2019-02-28T00:10:10.912Z,100661.98
2019-02-28T00:12:45.248Z,100658.48
2019-02-28T00:15:16.271Z,100659.80
2019-02-28T00:17:48.062Z,100656.70
2019-02-28T00:20:19.942Z,100651.03
2019-02-28T00:22:51.816Z,100647.02
2019-02-28T00:25:23.709Z,100644.89
2019-02-28T00:27:55.625Z,100638.39
2019-02-28T00:30:27.512Z,100631.81
2019-02-28T00:32:59.959Z,100637.47
2019-02-28T00:35:31.934Z,100630.07
2019-02-28T00:38:03.767Z,100623.52
2019-02-28T00:40:38.480Z,100611.32
2019-02-28T00:43:09.112Z,100606.05
2019-02-28T00:45:40.931Z,100590.81
2019-02-28T00:48:12.795Z,100594.31
2019-02-28T00:50:44.656Z,100585.55
2019-02-28T00:53:16.598Z,100585.13
2019-02-28T00:55:48.411Z,100582.50
2019-02-28T00:58:21.286Z,100587.73
2019-02-28T01:00:53.160Z,100582.03
2019-02-28T01:03:27.444Z,100576.78
2019-02-28T01:05:58.494Z,100565.42
2019-02-28T01:08:30.304Z,100555.81
2019-02-28T01:11:02.532Z,100551.44
2019-02-28T01:13:46.493Z,100546.23
2019-02-28T01:16:19.304Z,100551.02
2019-02-28T01:18:52.000Z,100544.47
2019-02-28T01:21:24.586Z,100537.91
2019-02-28T01:23:56.716Z,100534.85
2019-02-28T01:26:30.510Z,100524.38
2019-02-28T01:29:02.771Z,100526.13
2019-02-28T01:31:34.865Z,100517.38
2019-02-28T01:34:06.911Z,100511.69
2019-02-28T01:36:38.674Z,100510.81
2019-02-28T01:39:13.009Z,100499.44
2019-02-28T01:41:49.442Z,100506.00
2019-02-28T01:44:21.287Z,100495.94
2019-02-28T01:46:56.451Z,100499.00
2019-02-28T01:49:30.559Z,100497.70
2019-02-28T01:52:10.057Z,100494.63
2019-02-28T01:54:42.941Z,100491.98
2019-02-28T01:57:16.900Z,100497.23
2019-02-28T01:59:52.876Z,100485.02
2019-02-28T02:02:24.201Z,100488.95
2019-02-28T02:04:57.258Z,100482.83
2019-02-28T02:07:30.547Z,100484.56
2019-02-28T02:10:02.872Z,100481.09
2019-02-28T02:12:38.607Z,100477.58
2019-02-28T02:15:11.259Z,100471.05
2019-02-28T02:17:50.205Z,100467.98
2019-02-28T02:20:23.452Z,100463.59
2019-02-28T02:22:55.683Z,100455.73
2019-02-28T02:25:27.600Z,100451.80
2019-02-28T02:27:59.435Z,100453.55
2019-02-28T02:30:31.281Z,100445.67
2019-02-28T02:33:03.061Z,100452.21
2019-02-28T02:35:34.867Z,100433.41
2019-02-28T02:38:06.732Z,100435.62
2019-02-28T02:40:38.614Z,100433.44
2019-02-28T02:43:10.471Z,100445.66
2019-02-28T02:45:43.829Z,100444.81
2019-02-28T02:48:15.869Z,100443.06
2019-02-28T02:50:47.721Z,100440.88
2019-02-28T02:53:19.543Z,100438.69
2019-02-28T02:55:51.355Z,100437.82
2019-02-28T02:58:26.725Z,100436.52
2019-02-28T03:00:56.671Z,100432.12
2019-02-28T03:03:28.548Z,100423.81
2019-02-28T03:06:00.444Z,100415.95
2019-02-28T03:08:36.237Z,100412.43
2019-02-28T03:11:05.790Z,100401.94
2019-02-28T03:13:42.137Z,100403.69
2019-02-28T03:16:13.831Z,100405.39
2019-02-28T03:18:45.968Z,100396.27
2019-02-28T03:21:17.733Z,100396.72
2019-02-28T03:23:49.554Z,100396.23
2019-02-28T03:26:21.386Z,100392.74
2019-02-28T03:28:53.223Z,100393.64
2019-02-28T03:31:25.067Z,100393.17
2019-02-28T03:34:10.372Z,100394.05
2019-02-28T03:36:30.414Z,100381.77
2019-02-28T03:39:02.287Z,100389.21
2019-02-28T03:41:35.685Z,100381.81
2019-02-28T03:44:07.538Z,100377.84
2019-02-28T03:46:39.442Z,100384.86
2019-02-28T03:49:12.515Z,100380.92
2019-02-28T03:51:44.476Z,100373.98
2019-02-28T03:54:16.295Z,100369.61
2019-02-28T03:56:52.702Z,100359.06
2019-02-28T03:59:21.911Z,100349.45
2019-02-28T04:01:53.822Z,100352.07
2019-02-28T04:04:25.840Z,100349.41
2019-02-28T04:06:57.747Z,100348.11
2019-02-28T04:09:29.537Z,100340.67
2019-02-28T04:12:07.190Z,100342.02
2019-02-28T04:14:34.965Z,100333.73
2019-02-28T04:17:06.839Z,100329.36
2019-02-28T04:19:38.651Z,100331.11
2019-02-28T04:22:10.457Z,100330.27
2019-02-28T04:24:46.324Z,100325.89
2019-02-28T04:27:15.822Z,100317.59
2019-02-28T04:29:47.647Z,100320.19
2019-02-28T04:32:26.371Z,100315.84
2019-02-28T04:34:53.073Z,100307.56
2019-02-28T04:37:24.930Z,100307.97
2019-02-28T04:39:57.723Z,100310.59
2019-02-28T04:42:29.509Z,100303.16
2019-02-28T04:45:01.406Z,100296.14
2019-02-28T04:47:33.522Z,100298.39
2019-02-28T04:50:05.923Z,100296.20
2019-02-28T04:52:37.758Z,100299.70
2019-02-28T04:55:10.030Z,100293.61
2019-02-28T04:57:41.837Z,100287.48
2019-02-28T05:00:15.589Z,100289.64
2019-02-28T05:02:47.481Z,100287.45
2019-02-28T05:05:19.470Z,100284.87
2019-02-28T05:07:51.398Z,100275.66
2019-02-28T05:10:23.221Z,100264.33
2019-02-28T05:12:55.058Z,100257.77
2019-02-28T05:15:27.196Z,100266.53
2019-02-28T05:17:59.221Z,100268.28
2019-02-28T05:20:32.861Z,100268.75
2019-02-28T05:23:04.958Z,100273.55
2019-02-28T05:25:38.910Z,100262.22
2019-02-28T05:28:11.053Z,100259.16
2019-02-28T05:30:43.124Z,100248.22
2019-02-28T05:33:15.365Z,100245.16
2019-02-28T05:35:47.317Z,100237.29
2019-02-28T05:38:21.104Z,100231.17
2019-02-28T05:40:55.516Z,100238.14
2019-02-28T05:43:32.132Z,100233.36
2019-02-28T05:46:06.121Z,100234.67
2019-02-28T05:48:41.510Z,100232.89
2019-02-28T05:52:19.929Z,100232.45
2019-02-28T05:54:47.245Z,100227.21
2019-02-28T05:57:08.180Z,100229.42
2019-02-28T06:00:01.900Z,100239.94
2019-02-28T06:02:36.193Z,100239.08
2019-02-28T06:05:12.027Z,100233.41
2019-02-28T06:07:42.967Z,100224.64
2019-02-28T06:10:15.290Z,100223.36
2019-02-28T06:13:04.361Z,100225.58
2019-02-28T06:15:38.340Z,100222.52
2019-02-28T06:18:12.697Z,100222.49
2019-02-28T06:20:44.383Z,100219.41
2019-02-28T06:23:16.403Z,100223.28
2019-02-28T06:25:48.274Z,100228.96
2019-02-28T06:28:20.215Z,100236.36
2019-02-28T06:30:51.989Z,100228.05
2019-02-28T06:33:23.845Z,100232.78
2019-02-28T06:35:55.721Z,100224.88
2019-02-28T06:38:27.606Z,100220.02
2019-02-28T06:40:59.444Z,100217.34
2019-02-28T06:43:33.651Z,100228.27
2019-02-28T06:46:08.498Z,100222.48
2019-02-28T06:48:39.275Z,100231.16
2019-02-28T06:51:11.241Z,100228.95
2019-02-28T06:53:43.105Z,100234.16
2019-02-28T06:56:16.361Z,100227.95
2019-02-28T06:58:48.925Z,100225.25
2019-02-28T07:01:22.859Z,100222.05
2019-02-28T07:03:54.929Z,100226.70
2019-02-28T07:06:26.879Z,100233.20
2019-02-28T07:09:02.161Z,100224.71
2019-02-28T07:11:34.141Z,100222.49
2019-02-28T07:14:05.982Z,100220.28
2019-02-28T07:16:38.113Z,100215.38
2019-02-28T07:19:09.911Z,100208.28
2019-02-28T07:21:43.923Z,100211.58
2019-02-28T07:24:16.069Z,100201.34
2019-02-28T07:26:48.323Z,100199.11
2019-02-28T07:29:20.457Z,100195.49
2019-02-28T07:31:52.341Z,100196.54
2019-02-28T07:34:24.288Z,100200.33
2019-02-28T07:37:05.070Z,100206.47
2019-02-28T07:39:40.477Z,100208.67
2019-02-28T07:42:12.080Z,100202.24
2019-02-28T07:44:44.078Z,100197.74
2019-02-28T07:47:17.711Z,100197.64
2019-02-28T07:49:50.301Z,100195.69
2019-02-28T07:52:22.397Z,100198.04
2019-02-28T07:54:55.884Z,100198.08
2019-02-28T07:57:29.951Z,100198.02
2019-02-28T08:00:01.776Z,100183.89
2019-02-28T08:02:35.718Z,100189.32
2019-02-28T08:05:07.988Z,100198.85
2019-02-28T08:07:39.824Z,100191.85
2019-02-28T08:10:15.957Z,100189.23
2019-02-28T08:12:48.344Z,100192.38
2019-02-28T08:15:22.854Z,100189.48
2019-02-28T08:17:54.868Z,100191.97
2019-02-28T08:20:26.780Z,100189.41
2019-02-28T08:22:58.628Z,100202.99
2019-02-28T08:25:30.538Z,100198.72
2019-02-28T08:28:02.542Z,100189.86
2019-02-28T08:30:34.416Z,100193.15
2019-02-28T08:33:06.445Z,100185.02
2019-02-28T08:35:38.244Z,100190.02
2019-02-28T08:38:10.116Z,100189.56
2019-02-28T08:40:41.941Z,100195.80
2019-02-28T08:43:14.133Z,100175.30
2019-02-28T08:45:46.059Z,100170.01
2019-02-28T08:48:17.879Z,100177.09
2019-02-28T08:50:52.620Z,100183.55
2019-02-28T08:53:23.353Z,100189.28
2019-02-28T08:55:55.370Z,100197.89
2019-02-28T08:58:27.385Z,100195.28
2019-02-28T09:00:59.274Z,100206.95
2019-02-28T09:03:31.204Z,100205.43
2019-02-28T09:06:03.821Z,100197.81
2019-02-28T09:08:36.646Z,100197.75
2019-02-28T09:11:08.486Z,100195.17
2019-02-28T09:13:42.854Z,100194.83
2019-02-28T09:16:16.289Z,100197.58
2019-02-28T09:18:48.660Z,100203.60
2019-02-28T09:21:20.978Z,100203.49
2019-02-28T09:23:54.542Z,100194.58
2019-02-28T09:26:28.280Z,100191.19
2019-02-28T09:29:00.571Z,100189.87
2019-02-28T09:31:32.904Z,100184.08
2019-02-28T09:34:06.487Z,100180.42
2019-02-28T09:36:38.788Z,100181.33
2019-02-28T09:39:11.120Z,100173.69
2019-02-28T09:41:43.368Z,100176.98
2019-02-28T09:44:31.326Z,100184.39
2019-02-28T09:47:11.855Z,100194.75
2019-02-28T09:49:48.056Z,100188.21
2019-02-28T09:52:20.716Z,100174.89
2019-02-28T09:54:56.311Z,100171.11
2019-02-28T09:57:30.251Z,100171.61
2019-02-28T10:00:03.088Z,100176.56
2019-02-28T10:02:37.005Z,100175.34
2019-02-28T10:05:11.776Z,100167.90
2019-02-28T10:07:44.634Z,100173.50
2019-02-28T10:10:21.071Z,100179.84
2019-02-28T10:12:57.588Z,100183.39
2019-02-28T10:15:33.422Z,100190.11
2019-02-28T10:18:07.911Z,100186.97
2019-02-28T10:20:40.455Z,100192.02
2019-02-28T10:23:28.115Z,100192.86
2019-02-28T10:26:00.999Z,100182.70
2019-02-28T10:28:43.112Z,100177.20
2019-02-28T10:31:15.538Z,100177.32
2019-02-28T10:33:52.547Z,100171.77
2019-02-28T10:36:25.187Z,100169.77
2019-02-28T10:39:02.731Z,100182.95
2019-02-28T10:42:05.041Z,100182.59
2019-02-28T10:44:53.571Z,100175.75
2019-02-28T10:47:52.088Z,100165.34
2019-02-28T10:50:49.700Z,100177.61
2019-02-28T10:53:46.020Z,100188.95
2019-02-28T10:56:39.074Z,100188.09
2019-02-28T10:59:24.328Z,100187.31
2019-02-28T11:02:05.165Z,100186.86
2019-02-28T11:05:00.007Z,100174.45
2019-02-28T11:08:12.971Z,100171.12
2019-02-28T11:11:10.575Z,100171.76
2019-02-28T11:13:51.176Z,100172.13
2019-02-28T11:16:36.142Z,100185.67
2019-02-28T11:19:18.562Z,100172.53
2019-02-28T11:22:11.802Z,100182.69
2019-02-28T11:24:53.522Z,100191.98
2019-02-28T11:27:38.604Z,100195.12
2019-02-28T11:30:14.125Z,100188.44
2019-02-28T11:32:56.532Z,100196.73
2019-02-28T11:35:59.139Z,100196.69
2019-02-28T11:39:06.199Z,100189.99
2019-02-28T11:41:49.278Z,100195.06
2019-02-28T11:44:47.836Z,100195.42
2019-02-28T11:47:34.496Z,100197.67
2019-02-28T11:50:14.971Z,100182.59
2019-02-28T11:53:03.251Z,100181.85
2019-02-28T11:55:38.186Z,100179.98
2019-02-28T11:58:51.295Z,100176.30
2019-02-28T12:02:00.830Z,100175.95
2019-02-28T12:03:49.953Z,100169.90
2019-02-28T12:06:22.340Z,100167.62
2019-02-28T12:08:55.358Z,100175.72
2019-02-28T12:11:27.241Z,100172.60
2019-02-28T12:13:59.135Z,100170.62
2019-02-28T12:16:35.206Z,100168.77
2019-02-28T12:19:04.810Z,100173.44
2019-02-28T12:21:37.948Z,100157.89
2019-02-28T12:24:11.421Z,100152.53
2019-02-28T12:26:43.375Z,100152.98
2019-02-28T12:29:15.251Z,100142.96
2019-02-28T12:31:47.237Z,100144.34
2019-02-28T12:34:19.136Z,100143.36
2019-02-28T12:36:50.950Z,100145.45
2019-02-28T12:39:23.681Z,100141.16
2019-02-28T12:41:56.576Z,100142.78
2019-02-28T12:44:29.263Z,100151.41
2019-02-28T12:47:03.307Z,100157.21
2019-02-28T12:49:34.737Z,100155.89
2019-02-28T12:52:06.982Z,100153.96
2019-02-28T12:54:40.474Z,100156.06
2019-02-28T12:57:12.510Z,100150.49
2019-02-28T12:59:47.446Z,100145.31
2019-02-28T13:02:19.441Z,100139.31
2019-02-28T13:04:51.463Z,100149.42
2019-02-28T13:07:23.368Z,100148.25
2019-02-28T13:09:55.229Z,100148.50
2019-02-28T13:12:27.147Z,100145.25
2019-02-28T13:14:59.134Z,100145.45
2019-02-28T13:17:31.647Z,100141.98
2019-02-28T13:20:07.777Z,100147.30
2019-02-28T13:22:39.680Z,100145.16
2019-02-28T13:25:12.449Z,100146.59
2019-02-28T13:27:45.293Z,100141.54
2019-02-28T13:30:23.698Z,100141.08
2019-02-28T13:32:55.967Z,100138.87
2019-02-28T13:35:30.841Z,100139.17
2019-02-28T13:38:02.706Z,100139.38
2019-02-28T13:40:34.711Z,100147.66
2019-02-28T13:43:06.604Z,100138.95
2019-02-28T13:45:38.600Z,100134.70
2019-02-28T13:48:10.562Z,100143.70
2019-02-28T13:50:42.543Z,100150.23
2019-02-28T13:53:17.808Z,100140.92
2019-02-28T13:55:52.777Z,100145.52
2019-02-28T13:58:23.575Z,100140.89
2019-02-28T14:00:56.448Z,100148.15
2019-02-28T14:03:29.315Z,100149.59
2019-02-28T14:06:01.285Z,100154.20
2019-02-28T14:08:33.181Z,100151.63
2019-02-28T14:11:05.797Z,100155.41
2019-02-28T14:13:38.738Z,100150.09
2019-02-28T14:16:10.921Z,100150.86
2019-02-28T14:18:45.432Z,100144.02
2019-02-28T14:21:16.625Z,100148.54
2019-02-28T14:23:48.795Z,100139.50
2019-02-28T14:26:20.750Z,100141.90
2019-02-28T14:28:52.655Z,100135.30
2019-02-28T14:31:24.663Z,100128.97
2019-02-28T14:33:56.615Z,100134.94
2019-02-28T14:36:28.537Z,100134.52
2019-02-28T14:39:00.605Z,100133.00
2019-02-28T14:41:33.934Z,100129.47
2019-02-28T14:44:05.868Z,100134.44
2019-02-28T14:46:38.052Z,100133.32
2019-02-28T14:49:12.623Z,100130.83
2019-02-28T14:51:44.970Z,100136.53
2019-02-28T14:54:16.980Z,100133.93
2019-02-28T14:56:49.099Z,100134.54
2019-02-28T14:59:23.326Z,100140.52
2019-02-28T15:01:56.069Z,100145.29
2019-02-28T15:04:31.322Z,100143.61
2019-02-28T15:07:04.455Z,100137.57
2019-02-28T15:09:39.137Z,100143.67
2019-02-28T15:12:14.787Z,100147.00
2019-02-28T15:14:46.726Z,100143.22
2019-02-28T15:17:19.073Z,100143.98
2019-02-28T15:19:51.114Z,100148.63
2019-02-28T15:22:23.149Z,100141.73
2019-02-28T15:24:55.181Z,100141.94
2019-02-28T15:27:27.703Z,100141.28
2019-02-28T15:30:02.701Z,100141.47
2019-02-28T15:32:33.301Z,100143.09
2019-02-28T15:35:06.017Z,100137.94
2019-02-28T15:37:37.941Z,100143.05
2019-02-28T15:40:13.878Z,100141.45
2019-02-28T15:42:46.109Z,100149.86
2019-02-28T15:45:19.981Z,100141.87
2019-02-28T15:47:59.123Z,100142.56
2019-02-28T15:50:31.394Z,100143.20
2019-02-28T15:53:03.452Z,100143.75
2019-02-28T15:55:36.609Z,100144.45
2019-02-28T15:58:09.026Z,100145.53
2019-02-28T16:00:41.490Z,100147.59
2019-02-28T16:03:16.794Z,100143.52
2019-02-28T16:05:49.078Z,100148.23
2019-02-28T16:08:21.832Z,100148.64
2019-02-28T16:10:53.820Z,100148.53
2019-02-28T16:13:26.548Z,100154.55
2019-02-28T16:15:58.611Z,100154.29
2019-02-28T16:18:30.723Z,100164.11
2019-02-28T16:21:03.518Z,100154.79
2019-02-28T16:23:37.210Z,100157.44
2019-02-28T16:26:09.069Z,100162.92
2019-02-28T16:28:42.801Z,100167.92
2019-02-28T16:31:14.830Z,100172.18
2019-02-28T16:33:47.182Z,100172.69
2019-02-28T16:36:19.027Z,100181.39
2019-02-28T16:38:51.199Z,100176.41
2019-02-28T16:41:23.617Z,100179.77
2019-02-28T16:43:57.168Z,100184.39
2019-02-28T16:46:30.233Z,100189.16
2019-02-28T16:49:02.152Z,100192.17
2019-02-28T16:51:35.324Z,100200.98
2019-02-28T16:54:07.633Z,100209.66
2019-02-28T16:56:39.651Z,100217.48
2019-02-28T16:59:11.797Z,100223.47
2019-02-28T17:01:44.243Z,100226.58
2019-02-28T17:04:18.155Z,100223.20
2019-02-28T17:06:50.188Z,100222.02
2019-02-28T17:09:31.919Z,100218.98
2019-02-28T17:12:23.675Z,100220.55
2019-02-28T17:14:57.577Z,100220.41
2019-02-28T17:17:48.237Z,100222.47
2019-02-28T17:20:20.224Z,100224.38
2019-02-28T17:22:52.181Z,100224.09
2019-02-28T17:25:24.745Z,100230.10
2019-02-28T17:28:04.823Z,100230.32
2019-02-28T17:30:56.040Z,100232.33
2019-02-28T17:33:28.257Z,100232.97
2019-02-28T17:36:00.158Z,100190.30
2019-02-28T17:38:37.241Z,100242.03
2019-02-28T17:41:07.823Z,100243.53
2019-02-28T17:43:42.472Z,100246.70
2019-02-28T17:46:14.934Z,100245.95
2019-02-28T17:50:18.244Z,100245.25
2019-02-28T17:53:22.931Z,100238.08
2019-02-28T17:57:16.581Z,100245.16
2019-02-28T18:01:04.068Z,100246.27
2019-02-28T18:04:33.698Z,100248.45
2019-02-28T18:07:46.256Z,100242.02
2019-02-28T18:11:23.907Z,100242.59
2019-02-28T18:14:31.230Z,100245.64
2019-02-28T18:17:54.637Z,100252.24
2019-02-28T18:21:17.679Z,100248.00
2019-02-28T18:24:59.055Z,100256.17
2019-02-28T18:28:08.884Z,100256.09
2019-02-28T18:31:22.279Z,100262.48
2019-02-28T18:39:55.537Z,100270.98
2019-02-28T18:42:34.665Z,100274.20
2019-02-28T18:45:11.121Z,100274.09
2019-02-28T18:47:44.510Z,100275.89
2019-02-28T18:50:17.005Z,100280.95
2019-02-28T18:52:49.629Z,100285.09
2019-02-28T18:55:21.797Z,100277.42
2019-02-28T18:57:53.960Z,100277.24
2019-02-28T19:00:25.953Z,100271.72
2019-02-28T19:02:58.444Z,100278.85
2019-02-28T19:05:30.610Z,100274.42
2019-02-28T19:08:05.685Z,100269.84
2019-02-28T19:10:37.716Z,100273.06
2019-02-28T19:13:09.866Z,100272.23
2019-02-28T19:15:41.841Z,100281.85
2019-02-28T19:18:13.860Z,100290.85
2019-02-28T19:20:45.996Z,100294.31
2019-02-28T19:23:18.083Z,100300.80
2019-02-28T19:25:50.277Z,100298.30
2019-02-28T19:28:22.697Z,100299.72
2019-02-28T19:30:55.689Z,100296.32
2019-02-28T19:33:27.724Z,100295.58
2019-02-28T19:35:59.947Z,100294.45
2019-02-28T19:38:32.563Z,100296.56
2019-02-28T19:41:04.729Z,100158.52
2019-02-28T19:43:36.933Z,100296.80
2019-02-28T19:46:09.895Z,100302.52
2019-02-28T19:48:43.631Z,100303.61
2019-02-28T19:51:15.812Z,100296.56
2019-02-28T19:53:48.329Z,100305.55
2019-02-28T19:56:21.641Z,100300.47
2019-02-28T19:58:54.115Z,100291.87
2019-02-28T20:01:26.616Z,100292.63
2019-02-28T20:03:59.025Z,100292.64
2019-02-28T20:06:31.529Z,100298.41
2019-02-28T20:09:05.447Z,100299.94
2019-02-28T20:11:37.959Z,100302.55
2019-02-28T20:14:10.013Z,100299.20
2019-02-28T20:16:42.571Z,100305.63
2019-02-28T20:19:14.660Z,100307.30
2019-02-28T20:21:47.024Z,100310.36
2019-02-28T20:24:19.413Z,100307.39
2019-02-28T20:26:51.905Z,100307.83
2019-02-28T20:29:24.048Z,100309.91
2019-02-28T20:31:56.597Z,100312.36
2019-02-28T20:34:29.241Z,100319.38
2019-02-28T20:37:01.612Z,100323.45
2019-02-28T20:39:33.820Z,100322.97
2019-02-28T20:42:05.763Z,100327.78
2019-02-28T20:44:37.758Z,100331.02
2019-02-28T20:47:09.909Z,100328.80
2019-02-28T20:49:42.202Z,100329.30
2019-02-28T20:52:14.299Z,100334.91
2019-02-28T20:54:46.486Z,100332.75
2019-02-28T20:58:28.752Z,100332.41
2019-02-28T21:01:00.838Z,100339.06
2019-02-28T21:03:32.878Z,100338.73
2019-02-28T21:06:05.934Z,100341.34
2019-02-28T21:08:37.932Z,100343.61
2019-02-28T21:11:09.956Z,100352.77
2019-02-28T21:13:42.018Z,100351.00
2019-02-28T21:16:13.919Z,100349.35
2019-02-28T21:18:45.898Z,100346.41
2019-02-28T21:21:17.846Z,100347.64
2019-02-28T21:23:49.902Z,100352.55
2019-02-28T21:26:21.929Z,100361.19
2019-02-28T21:28:53.838Z,100365.98
2019-02-28T21:31:25.833Z,100375.48
2019-02-28T21:33:57.795Z,100380.66
2019-02-28T21:36:29.770Z,100379.69
2019-02-28T21:39:01.768Z,100385.30
2019-02-28T21:41:35.370Z,100372.97
2019-02-28T21:44:07.465Z,100374.38
2019-02-28T21:46:39.448Z,100378.44
2019-02-28T21:49:11.382Z,100373.51
2019-02-28T21:51:43.375Z,100373.45
2019-02-28T21:54:15.306Z,100370.47
2019-02-28T21:56:47.311Z,100372.21
2019-02-28T21:59:19.204Z,100362.06
2019-02-28T22:01:51.123Z,100368.34
2019-02-28T22:04:22.987Z,100371.84
2019-02-28T22:06:54.912Z,100372.66
2019-02-28T22:09:26.739Z,100375.73
2019-02-28T22:11:58.623Z,100376.59
2019-02-28T22:14:30.588Z,100365.10
2019-02-28T22:17:02.479Z,100369.56
2019-02-28T22:19:34.287Z,100367.37
2019-02-28T22:22:06.135Z,100368.37
2019-02-28T22:24:38.029Z,100373.28
2019-02-28T22:27:09.803Z,100371.86
2019-02-28T22:29:41.796Z,100371.76
2019-02-28T22:32:24.463Z,100370.37
2019-02-28T22:35:21.521Z,100370.88
2019-02-28T22:37:53.321Z,100365.63
2019-02-28T22:40:25.293Z,100361.36
2019-02-28T22:42:57.213Z,100357.41
2019-02-28T22:45:29.181Z,100361.78
2019-02-28T22:48:01.060Z,100365.72
2019-02-28T22:50:33.956Z,100358.70
2019-02-28T22:53:06.006Z,100358.27
2019-02-28T22:55:37.813Z,100355.19
2019-02-28T22:58:12.945Z,100356.97
2019-02-28T23:01:03.918Z,100362.29
2019-02-28T23:03:38.450Z,100363.60
2019-02-28T23:06:10.284Z,100362.30
2019-02-28T23:08:42.157Z,100361.07
2019-02-28T23:11:14.456Z,100361.07
2019-02-28T23:13:46.268Z,100363.19
2019-02-28T23:16:18.113Z,100361.44
2019-02-28T23:18:49.956Z,100360.92
2019-02-28T23:21:21.795Z,100360.53
2019-02-28T23:23:53.635Z,100360.11
2019-02-28T23:26:28.815Z,100354.43
2019-02-28T23:29:16.380Z,100349.25
2019-02-28T23:32:47.110Z,100352.73
2019-02-28T23:35:33.228Z,100343.62
2019-02-28T23:38:06.087Z,100338.08
2019-02-28T23:40:38.054Z,100331.17
2019-02-28T23:43:09.891Z,100326.79
2019-02-28T23:45:41.769Z,100325.02
2019-02-28T23:48:13.833Z,100325.91
2019-02-28T23:50:45.751Z,100329.91
2019-02-28T23:53:17.567Z,100325.54
2019-02-28T23:55:49.432Z,100318.09
2019-02-28T23:58:21.344Z,100316.27
